Time;durP1;ratioP1;P1;durP2;ratioP2;P2;SDS_P1;SDS_P2;PMS_P1;PMS_P2;Temp;Humidity;BMP_temperature;BMP_pressure;BME280_temperature;BME280_humidity;BME280_pressure;Samples;Min_cycle;Max_cycle;Signal;HPM_P1;HPM_P2
2023/06/07 00:01:47;;;;;;;21.97;10.07;;;;;;;;;;5093726;28;20016;-61
2023/06/07 00:04:12;;;;;;;19.53;9.30;;;;;;;;;;5092416;28;20072;-61
2023/06/07 00:06:39;;;;;;;23.63;10.77;;;;;;;;;;5092953;28;20099;-61
2023/06/07 00:09:04;;;;;;;24.30;9.60;;;;;;;;;;5073228;28;20021;-61
2023/06/07 00:11:30;;;;;;;26.60;9.20;;;;;;;;;;5093522;28;20126;-61
2023/06/07 00:13:55;;;;;;;19.80;9.40;;;;;;;;;;5087646;28;20030;-61
2023/06/07 00:16:20;;;;;;;25.13;9.70;;;;;;;;;;5093491;28;20346;-61
2023/06/07 00:18:46;;;;;;;22.90;9.80;;;;;;;;;;5074779;28;20031;-61
2023/06/07 00:21:11;;;;;;;24.97;9.30;;;;;;;;;;5093559;28;20020;-61
2023/06/07 00:23:36;;;;;;;22.00;9.33;;;;;;;;;;5090715;28;20074;-62
2023/06/07 00:26:01;;;;;;;22.00;9.10;;;;;;;;;;5093500;28;20059;-61
2023/06/07 00:28:27;;;;;;;22.83;9.80;;;;;;;;;;5093523;28;20477;-60
2023/06/07 00:30:52;;;;;;;22.80;9.67;;;;;;;;;;5093134;28;20107;-62
2023/06/07 00:33:19;;;;;;;22.70;9.37;;;;;;;;;;5093002;28;20035;-61
2023/06/07 00:35:44;;;;;;;25.83;10.30;;;;;;;;;;5093319;28;20420;-61
2023/06/07 00:38:09;;;;;;;20.30;9.50;;;;;;;;;;5092799;28;20068;-61
2023/06/07 00:40:35;;;;;;;19.93;9.10;;;;;;;;;;5093412;28;20035;-61
2023/06/07 00:43:00;;;;;;;23.27;9.80;;;;;;;;;;5092743;28;20020;-61
2023/06/07 00:45:25;;;;;;;20.73;9.33;;;;;;;;;;5093197;28;20028;-61
2023/06/07 00:47:51;;;;;;;21.20;8.87;;;;;;;;;;5092717;28;20012;-61
2023/06/07 00:50:16;;;;;;;25.83;9.77;;;;;;;;;;5091126;28;20031;-61
2023/06/07 00:52:41;;;;;;;26.90;10.40;;;;;;;;;;5091171;28;20393;-62
2023/06/07 00:55:08;;;;;;;23.63;9.90;;;;;;;;;;5092888;28;20036;-61
2023/06/07 00:57:35;;;;;;;24.87;10.03;;;;;;;;;;5092774;28;20020;-61
2023/06/07 01:00:01;;;;;;;25.17;9.63;;;;;;;;;;5092806;28;20376;-61
2023/06/07 01:02:47;;;;;;;31.80;9.63;;;;;;;;;;5048241;28;20519;-61
2023/06/07 01:05:14;;;;;;;23.37;9.60;;;;;;;;;;5050051;28;20079;-60
2023/06/07 01:07:42;;;;;;;22.50;9.93;;;;;;;;;;5050215;28;20494;-60
2023/06/07 01:10:29;;;;;;;20.97;9.93;;;;;;;;;;5050417;28;20025;-60
2023/06/07 01:12:54;;;;;;;26.97;9.93;;;;;;;;;;5031594;28;20052;-61
2023/06/07 01:15:20;;;;;;;25.47;10.07;;;;;;;;;;5049816;28;20029;-61
2023/06/07 01:17:47;;;;;;;21.50;9.60;;;;;;;;;;5050091;28;20124;-62
2023/06/07 01:20:18;;;;;;;23.30;10.07;;;;;;;;;;5049718;28;20104;-63
2023/06/07 01:22:45;;;;;;;23.17;10.07;;;;;;;;;;5053306;28;20144;-63
2023/06/07 01:25:21;;;;;;;26.60;9.77;;;;;;;;;;5054477;28;20151;-62
2023/06/07 01:27:50;;;;;;;22.37;10.13;;;;;;;;;;5053994;28;20544;-62
2023/06/07 01:30:15;;;;;;;25.30;10.30;;;;;;;;;;5053971;28;20032;-62
2023/06/07 01:32:41;;;;;;;26.80;10.30;;;;;;;;;;5056240;28;20474;-62
2023/06/07 01:35:08;;;;;;;21.53;10.30;;;;;;;;;;5095857;28;20016;-62
2023/06/07 01:37:34;;;;;;;24.37;10.17;;;;;;;;;;5095270;28;20036;-62
2023/06/07 01:40:01;;;;;;;24.23;10.57;;;;;;;;;;5095892;28;20070;-62
2023/06/07 01:42:27;;;;;;;24.87;10.53;;;;;;;;;;5096699;28;20031;-62
2023/06/07 01:44:59;;;;;;;23.90;9.93;;;;;;;;;;5096124;28;20020;-65
2023/06/07 01:47:25;;;;;;;24.77;9.83;;;;;;;;;;5095981;28;20024;-62
2023/06/07 01:49:50;;;;;;;23.10;10.33;;;;;;;;;;5095614;28;20069;-63
2023/06/07 01:54:46;;;;;;;26.63;9.40;;;;;;;;;;5096098;28;20032;-62
2023/06/07 01:57:26;;;;;;;24.90;10.27;;;;;;;;;;5096474;28;20350;-62
2023/06/07 02:00:09;;;;;;;24.50;10.10;;;;;;;;;;5096302;28;20582;-62
2023/06/07 02:02:37;;;;;;;23.33;10.10;;;;;;;;;;5088351;28;20105;-63
2023/06/07 02:05:15;;;;;;;24.60;10.13;;;;;;;;;;5083703;28;20035;-60
2023/06/07 02:07:50;;;;;;;25.17;9.80;;;;;;;;;;5075623;28;20017;-61
2023/06/07 02:10:17;;;;;;;23.67;9.80;;;;;;;;;;5075583;28;20032;-63
2023/06/07 02:12:43;;;;;;;22.07;9.50;;;;;;;;;;5090305;28;20405;-62
2023/06/07 02:15:09;;;;;;;24.57;10.10;;;;;;;;;;5095119;28;20012;-62
2023/06/07 02:17:46;;;;;;;23.93;9.73;;;;;;;;;;5095447;28;20103;-62
2023/06/07 02:20:11;;;;;;;26.03;10.73;;;;;;;;;;5094718;28;20548;-62
2023/06/07 02:22:37;;;;;;;24.53;10.70;;;;;;;;;;5095263;28;20105;-62
2023/06/07 02:25:02;;;;;;;23.37;10.13;;;;;;;;;;5094339;28;20051;-62
2023/06/07 02:27:34;;;;;;;23.87;9.83;;;;;;;;;;5095319;28;20020;-61
2023/06/07 02:30:00;;;;;;;21.97;8.93;;;;;;;;;;5095700;28;20500;-62
2023/06/07 02:32:26;;;;;;;26.90;9.83;;;;;;;;;;5095008;28;20020;-61
2023/06/07 02:34:51;;;;;;;27.23;10.20;;;;;;;;;;5095125;28;20035;-62
2023/06/07 02:37:17;;;;;;;22.83;9.70;;;;;;;;;;5094919;28;20385;-62
2023/06/07 02:39:42;;;;;;;27.83;10.23;;;;;;;;;;5095135;28;20027;-62
2023/06/07 02:42:08;;;;;;;33.27;10.73;;;;;;;;;;5094881;28;20028;-61
2023/06/07 02:44:33;;;;;;;26.33;11.30;;;;;;;;;;5095172;28;20024;-62
2023/06/07 02:46:59;;;;;;;23.80;10.83;;;;;;;;;;5095095;28;20016;-62
2023/06/07 02:49:24;;;;;;;25.60;11.57;;;;;;;;;;5094946;28;20020;-62
2023/06/07 02:54:19;;;;;;;28.93;11.13;;;;;;;;;;5094230;28;20107;-60
2023/06/07 02:56:45;;;;;;;24.27;11.10;;;;;;;;;;5093323;28;20024;-60
2023/06/07 02:59:10;;;;;;;25.70;10.67;;;;;;;;;;5092856;28;20020;-60
2023/06/07 03:01:37;;;;;;;28.17;11.23;;;;;;;;;;5094986;28;20464;-59
2023/06/07 03:04:03;;;;;;;25.87;11.20;;;;;;;;;;5093742;28;20051;-59
2023/06/07 03:06:29;;;;;;;31.30;11.37;;;;;;;;;;5094774;28;20016;-59
2023/06/07 03:08:54;;;;;;;30.10;11.33;;;;;;;;;;5095144;28;20069;-59
2023/06/07 03:11:21;;;;;;;27.03;10.20;;;;;;;;;;5088513;28;20027;-60
2023/06/07 03:13:46;;;;;;;23.30;10.30;;;;;;;;;;5074391;28;20036;-60
2023/06/07 03:16:11;;;;;;;30.80;10.40;;;;;;;;;;5086672;28;20024;-59
2023/06/07 03:18:37;;;;;;;23.47;10.17;;;;;;;;;;5074483;28;20029;-59
2023/06/07 03:21:02;;;;;;;27.83;10.07;;;;;;;;;;5088102;28;20028;-59
2023/06/07 03:23:29;;;;;;;22.40;10.20;;;;;;;;;;5094499;28;20020;-61
2023/06/07 03:25:56;;;;;;;31.53;10.20;;;;;;;;;;5085233;28;20028;-59
2023/06/07 03:28:22;;;;;;;25.80;10.70;;;;;;;;;;5093752;28;20471;-60
2023/06/07 03:30:47;;;;;;;24.63;10.07;;;;;;;;;;5091722;28;20024;-60
2023/06/07 03:33:13;;;;;;;25.00;10.07;;;;;;;;;;5094010;28;20381;-61
2023/06/07 03:35:39;;;;;;;26.17;9.93;;;;;;;;;;5093405;28;20049;-61
2023/06/07 03:38:05;;;;;;;23.97;10.73;;;;;;;;;;5094041;28;20020;-61
2023/06/07 03:40:30;;;;;;;27.97;10.63;;;;;;;;;;5094311;28;20027;-62
2023/06/07 03:42:55;;;;;;;25.07;10.00;;;;;;;;;;5094298;28;20091;-61
2023/06/07 03:45:21;;;;;;;29.27;12.07;;;;;;;;;;5093270;28;20016;-61
2023/06/07 03:47:46;;;;;;;27.07;10.20;;;;;;;;;;5094200;28;20091;-61
2023/06/07 03:50:11;;;;;;;26.70;10.40;;;;;;;;;;5093577;28;20024;-62
2023/06/07 03:52:36;;;;;;;29.60;10.00;;;;;;;;;;5093785;28;20447;-62
2023/06/07 03:55:02;;;;;;;25.17;9.80;;;;;;;;;;5093839;28;20024;-62
2023/06/07 03:57:27;;;;;;;24.60;9.60;;;;;;;;;;5094051;28;20027;-62
2023/06/07 03:59:53;;;;;;;24.13;9.67;;;;;;;;;;5093898;28;20024;-61
2023/06/07 04:02:18;;;;;;;22.20;9.53;;;;;;;;;;5093085;28;20056;-62
2023/06/07 04:04:44;;;;;;;25.17;9.53;;;;;;;;;;5093071;28;20031;-61
2023/06/07 04:07:09;;;;;;;30.73;11.13;;;;;;;;;;5093122;28;20457;-61
2023/06/07 04:09:35;;;;;;;25.40;9.47;;;;;;;;;;5093413;28;20112;-61
2023/06/07 04:12:01;;;;;;;22.50;10.07;;;;;;;;;;5092791;28;20028;-62
2023/06/07 04:14:27;;;;;;;27.23;10.10;;;;;;;;;;5093405;28;20074;-62
2023/06/07 04:16:52;;;;;;;24.77;10.70;;;;;;;;;;5093148;28;20036;-62
2023/06/07 04:19:17;;;;;;;26.90;10.30;;;;;;;;;;5076192;28;20552;-61
2023/06/07 04:21:43;;;;;;;23.43;9.97;;;;;;;;;;5093443;28;20077;-61
2023/06/07 04:24:08;;;;;;;25.27;10.47;;;;;;;;;;5093500;28;20488;-61
2023/06/07 04:26:33;;;;;;;23.30;10.07;;;;;;;;;;5093065;28;20102;-62
2023/06/07 04:28:59;;;;;;;24.87;10.10;;;;;;;;;;5093180;28;20464;-62
2023/06/07 04:31:29;;;;;;;25.97;9.87;;;;;;;;;;5092366;28;20016;-61
2023/06/07 04:33:57;;;;;;;23.73;9.63;;;;;;;;;;5093471;28;20051;-61
2023/06/07 04:36:22;;;;;;;26.70;9.57;;;;;;;;;;5093367;28;20016;-61
2023/06/07 04:38:48;;;;;;;20.13;9.63;;;;;;;;;;5093271;28;20020;-61
2023/06/07 04:41:13;;;;;;;25.27;10.40;;;;;;;;;;5093566;28;20461;-59
2023/06/07 04:43:39;;;;;;;26.30;10.10;;;;;;;;;;5093315;28;20012;-60
2023/06/07 04:46:04;;;;;;;23.07;10.20;;;;;;;;;;5092537;28;20027;-59
2023/06/07 04:48:31;;;;;;;26.27;11.13;;;;;;;;;;5089412;28;20012;-59
2023/06/07 04:51:03;;;;;;;26.97;10.00;;;;;;;;;;5092032;28;20381;-58
2023/06/07 04:53:28;;;;;;;36.72;11.18;;;;;;;;;;5092546;28;20377;-59
2023/06/07 04:55:56;;;;;;;27.90;10.37;;;;;;;;;;5092310;28;20089;-59
2023/06/07 04:58:21;;;;;;;20.50;9.70;;;;;;;;;;5096306;28;20016;-59
2023/06/07 05:00:47;;;;;;;19.47;9.37;;;;;;;;;;5097432;28;20539;-59
2023/06/07 05:03:21;;;;;;;25.00;9.50;;;;;;;;;;5096855;28;20491;-58
2023/06/07 05:05:46;;;;;;;22.63;9.90;;;;;;;;;;5093697;28;20069;-60
2023/06/07 05:08:12;;;;;;;21.93;9.50;;;;;;;;;;5096368;28;20020;-59
2023/06/07 05:10:37;;;;;;;21.93;9.70;;;;;;;;;;5096113;28;20023;-59
2023/06/07 05:13:02;;;;;;;23.80;9.60;;;;;;;;;;5090109;28;20102;-59
2023/06/07 05:15:28;;;;;;;20.08;8.70;;;;;;;;;;5094829;28;21307;-60
2023/06/07 05:17:54;;;;;;;24.73;9.23;;;;;;;;;;5095859;28;20465;-59
2023/06/07 05:20:20;;;;;;;22.60;9.38;;;;;;;;;;5094791;28;20028;-59
2023/06/07 05:22:46;;;;;;;24.50;9.68;;;;;;;;;;5096681;28;20024;-60
2023/06/07 05:25:12;;;;;;;21.90;9.18;;;;;;;;;;5078276;28;20020;-59
2023/06/07 05:27:37;;;;;;;21.23;8.93;;;;;;;;;;5095355;28;20019;-60
2023/06/07 05:30:07;;;;;;;19.63;8.45;;;;;;;;;;5094614;28;20057;-59
2023/06/07 05:32:32;;;;;;;20.40;8.40;;;;;;;;;;5096415;28;20388;-59
2023/06/07 05:34:58;;;;;;;22.20;7.97;;;;;;;;;;5096618;28;20024;-59
2023/06/07 05:37:26;;;;;;;23.17;8.15;;;;;;;;;;5096566;28;20073;-59
2023/06/07 05:39:51;;;;;;;19.02;7.90;;;;;;;;;;5096206;28;20031;-59
2023/06/07 05:42:17;;;;;;;19.25;7.05;;;;;;;;;;5096202;28;20020;-59
2023/06/07 05:44:44;;;;;;;17.45;8.30;;;;;;;;;;5096450;28;20099;-59
2023/06/07 05:47:09;;;;;;;21.85;7.47;;;;;;;;;;5096449;28;20054;-59
2023/06/07 05:49:35;;;;;;;24.83;8.05;;;;;;;;;;5096389;28;20500;-59
2023/06/07 05:52:00;;;;;;;19.70;7.50;;;;;;;;;;5096434;28;20069;-59
2023/06/07 05:54:26;;;;;;;22.17;7.15;;;;;;;;;;5096326;28;20035;-59
2023/06/07 05:56:51;;;;;;;19.48;7.13;;;;;;;;;;5095708;28;20449;-60
2023/06/07 05:59:17;;;;;;;17.50;7.03;;;;;;;;;;5094797;28;20021;-59
2023/06/07 06:01:44;;;;;;;18.58;6.95;;;;;;;;;;5095598;28;20016;-61
2023/06/07 06:04:09;;;;;;;20.40;6.82;;;;;;;;;;5095436;28;20040;-59
2023/06/07 06:06:36;;;;;;;21.35;7.30;;;;;;;;;;5095908;28;20024;-59
2023/06/07 06:09:01;;;;;;;17.00;6.13;;;;;;;;;;5095836;28;20485;-59
2023/06/07 06:11:27;;;;;;;15.20;6.85;;;;;;;;;;5096202;28;20012;-60
2023/06/07 06:13:52;;;;;;;15.23;6.90;;;;;;;;;;5095032;28;20031;-59
2023/06/07 06:16:17;;;;;;;19.27;6.97;;;;;;;;;;5095625;28;20024;-59
2023/06/07 06:18:42;;;;;;;19.00;6.78;;;;;;;;;;5095525;28;20028;-60
2023/06/07 06:21:08;;;;;;;16.42;6.78;;;;;;;;;;5095955;28;20020;-59
2023/06/07 06:23:34;;;;;;;20.48;6.80;;;;;;;;;;5095818;28;20472;-60
2023/06/07 06:25:59;;;;;;;15.82;6.15;;;;;;;;;;5095822;28;20039;-59
2023/06/07 06:28:25;;;;;;;18.77;6.72;;;;;;;;;;5079494;28;20547;-59
2023/06/07 06:30:50;;;;;;;20.02;6.50;;;;;;;;;;5075468;28;20027;-60
2023/06/07 06:33:16;;;;;;;14.55;6.28;;;;;;;;;;5074993;28;20028;-60
2023/06/07 06:35:41;;;;;;;16.33;6.40;;;;;;;;;;5084079;28;20150;-59
2023/06/07 06:38:06;;;;;;;19.02;6.90;;;;;;;;;;5095175;28;20016;-59
2023/06/07 06:40:31;;;;;;;17.83;6.53;;;;;;;;;;5095392;28;20062;-59
2023/06/07 06:42:58;;;;;;;17.67;6.78;;;;;;;;;;5095201;28;20020;-59
2023/06/07 06:45:24;;;;;;;16.45;7.07;;;;;;;;;;5095441;28;20496;-59
2023/06/07 06:47:49;;;;;;;19.15;5.95;;;;;;;;;;5095127;28;20020;-60
2023/06/07 06:50:14;;;;;;;16.83;6.30;;;;;;;;;;5093571;28;20097;-59
2023/06/07 06:52:41;;;;;;;17.92;6.28;;;;;;;;;;5092075;28;20465;-60
2023/06/07 06:55:06;;;;;;;18.70;6.88;;;;;;;;;;5095122;28;20456;-60
2023/06/07 06:57:32;;;;;;;21.20;6.88;;;;;;;;;;5094824;28;20025;-60
2023/06/07 06:59:58;;;;;;;15.00;6.85;;;;;;;;;;5091556;28;20077;-60
2023/06/07 07:02:23;;;;;;;18.60;6.50;;;;;;;;;;5094260;28;20036;-59
2023/06/07 07:04:48;;;;;;;15.95;6.20;;;;;;;;;;5095103;28;20020;-59
2023/06/07 07:07:14;;;;;;;15.07;6.03;;;;;;;;;;5094727;28;20380;-59
2023/06/07 07:09:39;;;;;;;25.83;6.70;;;;;;;;;;5094989;28;20072;-60
2023/06/07 07:12:05;;;;;;;19.05;7.20;;;;;;;;;;5094853;28;20504;-60
2023/06/07 07:14:30;;;;;;;19.20;6.50;;;;;;;;;;5094646;28;20020;-61
2023/06/07 07:16:55;;;;;;;15.13;6.20;;;;;;;;;;5094843;28;20031;-61
2023/06/07 07:19:21;;;;;;;17.73;6.43;;;;;;;;;;5093749;28;20477;-61
2023/06/07 07:21:46;;;;;;;19.25;6.72;;;;;;;;;;5080472;28;20020;-61
2023/06/07 07:24:11;;;;;;;17.00;6.22;;;;;;;;;;5094473;28;20110;-60
2023/06/07 07:26:39;;;;;;;17.42;6.53;;;;;;;;;;5094720;28;20376;-60
2023/06/07 07:29:04;;;;;;;17.33;6.82;;;;;;;;;;5094590;28;20020;-60
2023/06/07 07:31:30;;;;;;;16.73;6.80;;;;;;;;;;5092468;28;20024;-61
2023/06/07 07:33:56;;;;;;;19.92;7.13;;;;;;;;;;5094463;28;20496;-60
2023/06/07 07:36:22;;;;;;;18.08;6.60;;;;;;;;;;5094139;28;20107;-60
2023/06/07 07:38:48;;;;;;;16.65;6.65;;;;;;;;;;5094374;28;20051;-60
2023/06/07 07:41:14;;;;;;;16.13;6.65;;;;;;;;;;5093901;28;20450;-59
2023/06/07 07:43:39;;;;;;;18.67;6.10;;;;;;;;;;5094469;28;20040;-61
2023/06/07 07:46:05;;;;;;;13.00;5.65;;;;;;;;;;5075836;28;20020;-61
2023/06/07 07:48:31;;;;;;;15.43;5.63;;;;;;;;;;5094355;28;20431;-61
2023/06/07 07:50:56;;;;;;;16.45;5.88;;;;;;;;;;5093852;28;20492;-61
2023/06/07 07:53:21;;;;;;;14.43;5.95;;;;;;;;;;5094009;28;20460;-61
2023/06/07 07:55:46;;;;;;;14.07;5.38;;;;;;;;;;5092095;28;20024;-62
2023/06/07 07:58:12;;;;;;;13.05;5.57;;;;;;;;;;5093677;28;20012;-61
2023/06/07 08:00:38;;;;;;;14.90;5.47;;;;;;;;;;5093846;28;20047;-61
2023/06/07 08:03:03;;;;;;;13.75;5.03;;;;;;;;;;5093346;28;20067;-61
2023/06/07 08:05:28;;;;;;;17.20;5.45;;;;;;;;;;5093662;28;20016;-61
2023/06/07 08:07:54;;;;;;;17.35;5.10;;;;;;;;;;5093626;28;20019;-61
2023/06/07 08:10:19;;;;;;;16.83;5.00;;;;;;;;;;5093785;28;20020;-62
2023/06/07 08:12:44;;;;;;;14.77;4.82;;;;;;;;;;5092940;28;20490;-61
2023/06/07 08:15:10;;;;;;;16.42;4.22;;;;;;;;;;5093357;28;20069;-62
2023/06/07 08:17:35;;;;;;;12.65;4.28;;;;;;;;;;5093485;28;20023;-61
2023/06/07 08:20:04;;;;;;;13.75;4.22;;;;;;;;;;5093570;28;20084;-62
2023/06/07 08:22:29;;;;;;;13.25;4.05;;;;;;;;;;5093152;28;20406;-63
2023/06/07 08:24:54;;;;;;;15.57;4.28;;;;;;;;;;5093207;28;20046;-62
2023/06/07 08:27:20;;;;;;;11.88;4.05;;;;;;;;;;5093555;28;20419;-62
2023/06/07 08:29:45;;;;;;;13.52;4.10;;;;;;;;;;5093411;28;20032;-62
2023/06/07 08:32:11;;;;;;;15.25;3.92;;;;;;;;;;5093442;28;20040;-62
2023/06/07 08:34:39;;;;;;;13.15;3.78;;;;;;;;;;5093243;28;20073;-61
2023/06/07 08:37:05;;;;;;;14.93;3.60;;;;;;;;;;5072989;28;20025;-62
2023/06/07 08:39:30;;;;;;;10.07;3.55;;;;;;;;;;5073435;28;20021;-62
2023/06/07 08:41:55;;;;;;;11.70;3.60;;;;;;;;;;5073554;28;20021;-62
2023/06/07 08:44:21;;;;;;;13.23;3.88;;;;;;;;;;5073360;28;20027;-62
2023/06/07 08:46:47;;;;;;;12.45;3.80;;;;;;;;;;5073269;28;20016;-63
2023/06/07 08:49:13;;;;;;;13.32;3.50;;;;;;;;;;5073418;28;20017;-61
2023/06/07 08:51:41;;;;;;;13.45;3.28;;;;;;;;;;5074501;28;20024;-62
2023/06/07 08:54:08;;;;;;;11.18;3.33;;;;;;;;;;5093311;28;20051;-63
2023/06/07 08:56:33;;;;;;;17.80;3.90;;;;;;;;;;5090300;28;20449;-62
2023/06/07 08:58:59;;;;;;;10.88;3.20;;;;;;;;;;5089852;28;20017;-62
2023/06/07 09:01:27;;;;;;;13.05;3.20;;;;;;;;;;5093402;28;20016;-62
2023/06/07 09:03:52;;;;;;;11.32;3.28;;;;;;;;;;5092813;28;20044;-63
2023/06/07 09:06:18;;;;;;;10.82;3.17;;;;;;;;;;5093347;28;20016;-62
2023/06/07 09:08:44;;;;;;;13.80;3.92;;;;;;;;;;5093020;28;20028;-63
2023/06/07 09:11:09;;;;;;;10.40;3.33;;;;;;;;;;5093329;28;20024;-62
2023/06/07 09:13:36;;;;;;;14.60;3.50;;;;;;;;;;5093246;28;20031;-63
2023/06/07 09:16:02;;;;;;;14.85;4.00;;;;;;;;;;5093197;28;20469;-63
2023/06/07 09:18:47;;;;;;;11.82;3.35;;;;;;;;;;5092779;28;20070;-64
2023/06/07 09:21:41;;;;;;;11.05;3.17;;;;;;;;;;5092933;28;20016;-63
2023/06/07 09:24:06;;;;;;;16.20;3.92;;;;;;;;;;4991161;28;20027;-63
2023/06/07 09:26:36;;;;;;;12.23;3.20;;;;;;;;;;4990235;28;20377;-62
2023/06/07 09:29:08;;;;;;;12.40;3.83;;;;;;;;;;4990698;28;20029;-63
2023/06/07 09:31:34;;;;;;;12.85;3.95;;;;;;;;;;4991310;28;20034;-62
2023/06/07 09:34:17;;;;;;;11.40;3.17;;;;;;;;;;4991186;28;20397;-63
2023/06/07 09:36:59;;;;;;;10.63;3.20;;;;;;;;;;4975205;28;20027;-65
2023/06/07 09:39:26;;;;;;;9.55;3.17;;;;;;;;;;4991009;28;20026;-63
2023/06/07 09:41:52;;;;;;;11.02;3.47;;;;;;;;;;4991209;28;20026;-63
2023/06/07 09:44:30;;;;;;;11.18;2.95;;;;;;;;;;4994735;28;20026;-62
2023/06/07 09:46:56;;;;;;;9.77;2.72;;;;;;;;;;4994839;28;20591;-62
2023/06/07 09:49:34;;;;;;;12.13;3.35;;;;;;;;;;4994683;28;20037;-63
2023/06/07 09:52:02;;;;;;;9.90;2.92;;;;;;;;;;4994243;28;20022;-63
2023/06/07 09:54:38;;;;;;;15.18;3.13;;;;;;;;;;4994607;28;20185;-65
2023/06/07 09:57:08;;;;;;;10.93;3.40;;;;;;;;;;4994604;28;20068;-64
2023/06/07 09:59:35;;;;;;;9.93;3.10;;;;;;;;;;5003692;28;20026;-64
2023/06/07 10:02:00;;;;;;;11.52;2.90;;;;;;;;;;5075450;28;20017;-64
2023/06/07 10:04:26;;;;;;;12.30;3.33;;;;;;;;;;5075724;28;20024;-63
2023/06/07 10:06:54;;;;;;;11.95;3.38;;;;;;;;;;5076040;28;20025;-63
2023/06/07 10:09:20;;;;;;;11.52;3.10;;;;;;;;;;5096185;28;20440;-62
2023/06/07 10:11:47;;;;;;;9.95;3.15;;;;;;;;;;5096225;28;20036;-62
2023/06/07 10:14:14;;;;;;;10.15;3.25;;;;;;;;;;5095719;28;20024;-63
2023/06/07 10:16:45;;;;;;;11.82;3.10;;;;;;;;;;5095714;28;20020;-63
2023/06/07 10:19:17;;;;;;;10.23;2.78;;;;;;;;;;5095593;28;20115;-63
2023/06/07 10:21:47;;;;;;;13.30;3.20;;;;;;;;;;5095111;28;20066;-63
2023/06/07 10:24:15;;;;;;;12.50;3.22;;;;;;;;;;5095898;28;20017;-62
2023/06/07 10:26:49;;;;;;;9.57;2.63;;;;;;;;;;5096025;28;20381;-63
2023/06/07 10:29:22;;;;;;;11.27;2.97;;;;;;;;;;5096026;28;20069;-63
2023/06/07 10:31:50;;;;;;;10.98;2.90;;;;;;;;;;5094873;28;20027;-62
2023/06/07 10:34:17;;;;;;;13.10;3.28;;;;;;;;;;5095313;28;20024;-63
2023/06/07 10:36:42;;;;;;;11.43;3.10;;;;;;;;;;5077148;28;20031;-63
2023/06/07 10:39:11;;;;;;;12.57;2.85;;;;;;;;;;5095466;28;20020;-63
2023/06/07 10:41:36;;;;;;;12.60;3.05;;;;;;;;;;5095609;28;20384;-63
2023/06/07 10:44:02;;;;;;;12.13;3.10;;;;;;;;;;5095516;28;20095;-63
2023/06/07 10:46:28;;;;;;;9.00;2.92;;;;;;;;;;5095402;28;20464;-64
2023/06/07 10:48:55;;;;;;;8.10;2.70;;;;;;;;;;5095218;28;20028;-65
2023/06/07 10:51:38;;;;;;;9.68;2.80;;;;;;;;;;5093730;28;20032;-63
2023/06/07 10:54:04;;;;;;;10.63;3.10;;;;;;;;;;5095199;28;20473;-64
2023/06/07 10:56:36;;;;;;;9.65;2.90;;;;;;;;;;5095237;28;20094;-63
2023/06/07 10:59:35;;;;;;;7.65;2.75;;;;;;;;;;5091728;28;20475;-63
2023/06/07 11:02:18;;;;;;;9.38;2.80;;;;;;;;;;5060116;28;20028;-64
2023/06/07 11:04:48;;;;;;;9.02;2.88;;;;;;;;;;5053468;28;20029;-63
2023/06/07 11:07:18;;;;;;;10.30;2.83;;;;;;;;;;5054474;28;20017;-64
2023/06/07 11:09:43;;;;;;;11.23;3.10;;;;;;;;;;5054932;28;20029;-63
2023/06/07 11:12:09;;;;;;;8.55;3.10;;;;;;;;;;5054724;28;20541;-63
2023/06/07 11:14:35;;;;;;;11.02;3.65;;;;;;;;;;5054520;28;20021;-63
2023/06/07 11:17:00;;;;;;;12.20;3.40;;;;;;;;;;5054715;28;20138;-64
2023/06/07 11:19:46;;;;;;;12.10;3.10;;;;;;;;;;5054678;28;20025;-65
2023/06/07 11:22:15;;;;;;;9.57;2.72;;;;;;;;;;5054150;28;20027;-65
2023/06/07 11:24:41;;;;;;;9.73;3.22;;;;;;;;;;5054185;28;20013;-65
2023/06/07 11:27:09;;;;;;;10.15;3.78;;;;;;;;;;5054107;28;20031;-65
2023/06/07 11:29:36;;;;;;;10.48;3.60;;;;;;;;;;5054159;28;20025;-65
2023/06/07 11:32:01;;;;;;;10.35;3.05;;;;;;;;;;5053520;28;20033;-65
2023/06/07 11:34:27;;;;;;;7.95;2.95;;;;;;;;;;5054039;28;20422;-65
2023/06/07 11:37:05;;;;;;;11.60;3.28;;;;;;;;;;5054066;28;20024;-65
2023/06/07 11:39:34;;;;;;;10.20;3.40;;;;;;;;;;5041533;28;20360;-64
2023/06/07 11:42:00;;;;;;;9.30;3.08;;;;;;;;;;5034244;28;20021;-65
2023/06/07 11:44:25;;;;;;;8.38;3.25;;;;;;;;;;5042372;28;20020;-65
2023/06/07 11:46:50;;;;;;;11.00;2.60;;;;;;;;;;5053821;28;20028;-64
2023/06/07 11:49:16;;;;;;;8.02;2.70;;;;;;;;;;5053664;28;20017;-65
2023/06/07 11:51:43;;;;;;;10.20;3.10;;;;;;;;;;5053943;28;20055;-65
2023/06/07 11:54:08;;;;;;;8.18;3.03;;;;;;;;;;5053683;28;20025;-65
2023/06/07 11:56:37;;;;;;;9.25;3.00;;;;;;;;;;5053984;28;20067;-67
2023/06/07 11:59:03;;;;;;;7.32;2.83;;;;;;;;;;5053757;28;20047;-66
2023/06/07 12:01:29;;;;;;;12.13;3.40;;;;;;;;;;5037575;28;20013;-66
2023/06/07 12:03:56;;;;;;;10.65;3.38;;;;;;;;;;5065227;28;20056;-67
2023/06/07 12:06:24;;;;;;;7.80;2.90;;;;;;;;;;5073155;28;20034;-67
2023/06/07 12:08:50;;;;;;;9.48;3.17;;;;;;;;;;5090341;28;20039;-67
2023/06/07 12:11:19;;;;;;;10.07;3.03;;;;;;;;;;5093672;28;20024;-66
2023/06/07 12:13:49;;;;;;;8.63;3.00;;;;;;;;;;5093674;28;20024;-67
2023/06/07 12:16:15;;;;;;;7.50;3.08;;;;;;;;;;5094031;28;20432;-66
2023/06/07 12:18:40;;;;;;;7.55;3.10;;;;;;;;;;5093715;28;20027;-67
2023/06/07 12:21:07;;;;;;;8.00;3.13;;;;;;;;;;5093425;28;20036;-66
2023/06/07 12:23:35;;;;;;;10.43;3.00;;;;;;;;;;5093036;28;20414;-66
2023/06/07 12:26:07;;;;;;;10.30;3.40;;;;;;;;;;5093403;28;20012;-65
2023/06/07 12:28:33;;;;;;;7.63;3.05;;;;;;;;;;5093453;28;20016;-66
2023/06/07 12:30:58;;;;;;;9.65;3.45;;;;;;;;;;5093761;28;20023;-67
2023/06/07 12:33:27;;;;;;;10.93;3.55;;;;;;;;;;5093552;28;20044;-67
2023/06/07 12:35:52;;;;;;;7.60;3.40;;;;;;;;;;5092785;28;20023;-65
2023/06/07 12:38:21;;;;;;;11.77;3.47;;;;;;;;;;5093468;28;20024;-66
2023/06/07 12:40:47;;;;;;;7.47;2.95;;;;;;;;;;5093342;28;20062;-66
2023/06/07 12:43:12;;;;;;;11.52;3.60;;;;;;;;;;5093462;28;20024;-67
2023/06/07 12:45:37;;;;;;;7.63;3.30;;;;;;;;;;5093565;28;20020;-67
2023/06/07 12:48:03;;;;;;;8.05;3.33;;;;;;;;;;5093464;28;20016;-67
2023/06/07 12:50:28;;;;;;;9.02;3.25;;;;;;;;;;5093233;28;20027;-68
2023/06/07 12:52:54;;;;;;;8.93;3.00;;;;;;;;;;5093226;28;20028;-68
2023/06/07 12:55:19;;;;;;;6.47;2.80;;;;;;;;;;5093508;28;20023;-68
2023/06/07 12:57:44;;;;;;;8.93;3.17;;;;;;;;;;5089858;28;20031;-69
2023/06/07 13:00:10;;;;;;;9.20;3.25;;;;;;;;;;5093441;28;20055;-68
2023/06/07 13:02:36;;;;;;;11.00;3.42;;;;;;;;;;5093373;28;20051;-67
2023/06/07 13:05:01;;;;;;;10.55;3.53;;;;;;;;;;5093179;28;20526;-65
2023/06/07 13:07:27;;;;;;;6.78;2.95;;;;;;;;;;5093052;28;20012;-65
2023/06/07 13:09:52;;;;;;;6.97;3.20;;;;;;;;;;5093532;28;20020;-65
2023/06/07 13:12:18;;;;;;;8.50;3.17;;;;;;;;;;5087943;28;20019;-64
2023/06/07 13:14:43;;;;;;;9.13;3.20;;;;;;;;;;5073151;28;20078;-64
2023/06/07 13:17:10;;;;;;;9.90;3.30;;;;;;;;;;5073666;28;20096;-65
2023/06/07 13:19:35;;;;;;;10.93;2.90;;;;;;;;;;5076741;28;20024;-68
2023/06/07 13:22:01;;;;;;;6.07;2.70;;;;;;;;;;5078446;28;20016;-67
2023/06/07 13:24:26;;;;;;;9.20;2.88;;;;;;;;;;5097067;28;20016;-67
2023/06/07 13:26:52;;;;;;;7.20;2.80;;;;;;;;;;5097044;28;20100;-65
2023/06/07 13:29:18;;;;;;;8.95;3.30;;;;;;;;;;5078519;28;20024;-65
2023/06/07 13:31:44;;;;;;;11.60;3.42;;;;;;;;;;5097071;28;20031;-66
2023/06/07 13:34:09;;;;;;;7.22;3.33;;;;;;;;;;5097217;28;20020;-72
2023/06/07 13:36:36;;;;;;;8.70;3.15;;;;;;;;;;5096963;28;20570;-72
2023/06/07 13:39:01;;;;;;;10.82;3.75;;;;;;;;;;5096472;28;20020;-72
2023/06/07 13:41:27;;;;;;;10.10;3.67;;;;;;;;;;5095126;28;20021;-73
2023/06/07 13:43:52;;;;;;;7.55;3.40;;;;;;;;;;5096958;28;20024;-74
2023/06/07 13:46:17;;;;;;;8.07;3.35;;;;;;;;;;5093792;28;20040;-74
2023/06/07 13:48:43;;;;;;;7.68;3.45;;;;;;;;;;5096850;28;20012;-74
2023/06/07 13:51:10;;;;;;;8.65;3.45;;;;;;;;;;5096913;28;20462;-73
2023/06/07 13:53:35;;;;;;;7.65;3.05;;;;;;;;;;5096990;28;20477;-74
2023/06/07 13:56:01;;;;;;;10.65;3.63;;;;;;;;;;5097007;28;20023;-74
2023/06/07 13:58:31;;;;;;;12.88;3.88;;;;;;;;;;5097064;28;20070;-73
2023/06/07 14:00:58;;;;;;;10.75;3.92;;;;;;;;;;5096351;28;20020;-72
2023/06/07 14:03:23;;;;;;;11.63;3.17;;;;;;;;;;5095838;28;20036;-72
2023/06/07 14:05:58;;;;;;;11.25;3.22;;;;;;;;;;5096489;28;20024;-74
2023/06/07 14:08:24;;;;;;;7.63;3.30;;;;;;;;;;5089387;28;20392;-74
2023/06/07 14:10:50;;;;;;;9.93;3.20;;;;;;;;;;5096274;28;20024;-76
2023/06/07 14:13:15;;;;;;;9.40;3.42;;;;;;;;;;5096066;28;20046;-77
2023/06/07 14:15:41;;;;;;;8.55;3.00;;;;;;;;;;5095033;28;20028;-76
2023/06/07 14:18:07;;;;;;;8.77;3.13;;;;;;;;;;5096334;28;20119;-75
2023/06/07 14:20:32;;;;;;;12.43;3.30;;;;;;;;;;5095754;28;20020;-76
2023/06/07 14:22:58;;;;;;;8.15;3.78;;;;;;;;;;5096041;28;20035;-74
2023/06/07 14:25:23;;;;;;;7.35;2.92;;;;;;;;;;5096106;28;20100;-76
2023/06/07 14:27:49;;;;;;;6.78;2.90;;;;;;;;;;5095650;28;20358;-77
2023/06/07 14:30:15;;;;;;;7.93;3.05;;;;;;;;;;5094654;28;20035;-75
2023/06/07 14:32:40;;;;;;;11.70;3.03;;;;;;;;;;5096031;28;20413;-75
2023/06/07 14:35:06;;;;;;;8.77;2.83;;;;;;;;;;5095432;28;20031;-77